createdAt,value
2019-03-13T00:00:55.366Z,5.9
2019-03-13T00:02:07.663Z,4.9
2019-03-13T00:03:19.762Z,5.3
2019-03-13T00:04:31.955Z,3.8
2019-03-13T00:05:44.199Z,2.8
2019-03-13T00:06:56.609Z,3.9
2019-03-13T00:08:08.537Z,4.4
2019-03-13T00:09:20.863Z,3.4
2019-03-13T00:10:32.996Z,3.4
2019-03-13T00:11:45.209Z,3.8
2019-03-13T00:12:57.381Z,3.5
2019-03-13T00:14:09.523Z,3.4
2019-03-13T00:15:21.693Z,3
2019-03-13T00:16:33.910Z,3.2
2019-03-13T00:17:46.107Z,3.8
2019-03-13T00:18:58.278Z,2.5
2019-03-13T00:20:10.466Z,3.2
2019-03-13T00:21:22.660Z,4.2
2019-03-13T00:22:36.683Z,2.9
2019-03-13T00:23:48.209Z,2.8
2019-03-13T00:24:59.238Z,5.4
2019-03-13T00:26:11.446Z,3.4
2019-03-13T00:27:23.724Z,2.1
2019-03-13T00:28:35.899Z,3.2
2019-03-13T00:29:48.040Z,2.9
2019-03-13T00:31:00.535Z,3.5
2019-03-13T00:32:12.403Z,3.5
2019-03-13T00:33:24.593Z,3.4
2019-03-13T00:34:36.870Z,4.3
2019-03-13T00:35:49.151Z,2.8
2019-03-13T00:37:04.167Z,2.7
2019-03-13T00:38:13.388Z,3.9
2019-03-13T00:39:25.603Z,3.6
2019-03-13T00:40:37.758Z,5.6
2019-03-13T00:41:50.042Z,4.6
2019-03-13T00:43:02.253Z,3.8
2019-03-13T00:44:14.341Z,3.3
2019-03-13T00:45:26.656Z,4.3
2019-03-13T00:46:38.736Z,4.2
2019-03-13T00:47:51.127Z,3.4
2019-03-13T00:49:03.240Z,4.2
2019-03-13T00:50:15.325Z,3.5
2019-03-13T00:51:27.639Z,4.6
2019-03-13T00:52:39.703Z,4.4
2019-03-13T00:53:55.515Z,4.7
2019-03-13T00:55:08.233Z,2.4
2019-03-13T00:56:16.471Z,3.3
2019-03-13T00:57:28.542Z,4.2
2019-03-13T00:58:40.688Z,4.3
2019-03-13T00:59:52.962Z,4.1
2019-03-13T01:01:05.066Z,5
2019-03-13T01:02:17.400Z,5.6
2019-03-13T01:03:29.448Z,6.6
2019-03-13T01:04:41.654Z,4.6
2019-03-13T01:05:53.843Z,6.2
2019-03-13T01:07:06.148Z,5.8
2019-03-13T01:08:18.233Z,5.6
2019-03-13T01:09:30.493Z,3.8
2019-03-13T01:10:42.634Z,6.8
2019-03-13T01:11:54.903Z,5.1
2019-03-13T01:13:07.033Z,4.7
2019-03-13T01:14:19.216Z,5.3
2019-03-13T01:15:31.423Z,3.4
2019-03-13T01:16:43.667Z,6.4
2019-03-13T01:17:55.804Z,3.8
2019-03-13T01:19:08.052Z,4.9
2019-03-13T01:20:20.160Z,5.1
2019-03-13T01:21:32.439Z,6
2019-03-13T01:22:44.745Z,4.8
2019-03-13T01:23:56.869Z,4.3
2019-03-13T01:25:09.043Z,8.2
2019-03-13T01:26:21.143Z,5.3
2019-03-13T01:27:33.325Z,5.7
2019-03-13T01:28:45.607Z,6.5
2019-03-13T01:29:57.738Z,6.4
2019-03-13T01:31:09.904Z,7
2019-03-13T01:32:22.106Z,5.6
2019-03-13T01:33:34.299Z,5.8
2019-03-13T01:34:47.446Z,6.7
2019-03-13T01:35:58.808Z,8.9
2019-03-13T01:37:10.878Z,7
2019-03-13T01:38:23.115Z,5.8
2019-03-13T01:39:35.255Z,5.4
2019-03-13T01:40:47.515Z,8.6
2019-03-13T01:41:59.666Z,7.9
2019-03-13T01:43:11.930Z,5.8
2019-03-13T01:44:24.047Z,6
2019-03-13T01:45:36.229Z,7.1
2019-03-13T01:46:48.425Z,6.5
2019-03-13T01:48:00.716Z,7.3
2019-03-13T01:49:12.889Z,6.3
2019-03-13T01:50:25.034Z,7.2
2019-03-13T01:51:37.244Z,5
2019-03-13T01:52:49.466Z,7.9
2019-03-13T01:54:01.685Z,5.7
2019-03-13T01:55:13.803Z,8.5
2019-03-13T01:56:26.133Z,3.9
2019-03-13T01:57:38.305Z,9.4
2019-03-13T01:58:50.383Z,6.1
2019-03-13T02:00:02.896Z,6.2
2019-03-13T02:01:14.759Z,4.3
2019-03-13T02:02:27.119Z,4.2
2019-03-13T02:03:39.209Z,6.1
2019-03-13T02:04:51.341Z,6.7
2019-03-13T02:06:03.525Z,6.1
2019-03-13T02:07:15.717Z,5.7
2019-03-13T02:08:28.684Z,7.5
2019-03-13T02:09:40.171Z,8
2019-03-13T02:10:52.393Z,5.7
2019-03-13T02:12:04.679Z,8.6
2019-03-13T02:13:16.689Z,4.1
2019-03-13T02:14:28.953Z,6.8
2019-03-13T02:15:41.180Z,5.6
2019-03-13T02:16:53.336Z,7.2
2019-03-13T02:18:05.465Z,7.7
2019-03-13T02:19:17.658Z,4.9
2019-03-13T02:20:29.888Z,4.8
2019-03-13T02:21:42.159Z,6.2
2019-03-13T02:22:54.246Z,6.3
2019-03-13T02:24:06.535Z,4.5
2019-03-13T02:25:18.630Z,6
2019-03-13T02:26:30.902Z,7.9
2019-03-13T02:27:43.021Z,3.6
2019-03-13T02:28:55.299Z,8
2019-03-13T02:30:07.500Z,8.3
2019-03-13T02:31:19.679Z,8.3
2019-03-13T02:32:31.791Z,7.1
2019-03-13T02:33:44.008Z,6.6
2019-03-13T02:34:56.228Z,5.5
2019-03-13T02:36:08.485Z,6.5
2019-03-13T02:37:20.573Z,7.8
2019-03-13T02:38:32.787Z,4.1
2019-03-13T02:39:45.066Z,6.4
2019-03-13T02:40:57.251Z,5.3
2019-03-13T02:42:09.457Z,8.3
2019-03-13T02:43:21.611Z,8.3
2019-03-13T02:44:33.838Z,6.7
2019-03-13T02:45:46.052Z,6.1
2019-03-13T02:46:58.222Z,7.1
2019-03-13T02:48:10.467Z,4.5
2019-03-13T02:49:22.599Z,5.4
2019-03-13T02:50:34.739Z,5.2
2019-03-13T02:51:46.909Z,4.7
2019-03-13T02:52:59.172Z,7.7
2019-03-13T02:54:11.278Z,8.1
2019-03-13T02:55:23.579Z,5.1
2019-03-13T02:56:35.687Z,6.4
2019-03-13T02:57:47.878Z,6.3
2019-03-13T02:59:00.149Z,7.6
2019-03-13T03:00:12.374Z,6.6
2019-03-13T03:01:24.478Z,6
2019-03-13T03:02:36.755Z,3.6
2019-03-13T03:03:48.838Z,6.9
2019-03-13T03:05:01.127Z,3.6
2019-03-13T03:06:13.250Z,7.7
2019-03-13T03:07:25.428Z,7.1
2019-03-13T03:08:37.689Z,6.4
2019-03-13T03:09:49.813Z,4.8
2019-03-13T03:11:02.098Z,5.4
2019-03-13T03:12:14.306Z,4.6
2019-03-13T03:13:26.393Z,7.4
2019-03-13T03:14:38.661Z,8.6
2019-03-13T03:15:50.773Z,8
2019-03-13T03:17:02.989Z,7
2019-03-13T03:18:15.176Z,6.6
2019-03-13T03:19:27.344Z,6.9
2019-03-13T03:20:39.634Z,7.6
2019-03-13T03:21:51.904Z,4.7
2019-03-13T03:23:04.014Z,6.5
2019-03-13T03:24:16.195Z,5.6
2019-03-13T03:25:28.339Z,5.5
2019-03-13T03:26:40.576Z,9.6
2019-03-13T03:27:52.789Z,8
2019-03-13T03:29:04.972Z,6.6
2019-03-13T03:30:17.246Z,6.9
2019-03-13T03:31:29.296Z,7.5
2019-03-13T03:32:41.594Z,7.4
2019-03-13T03:33:53.678Z,10.9
2019-03-13T03:35:05.914Z,7.2
2019-03-13T03:36:22.956Z,8.3
2019-03-13T03:37:30.256Z,5.6
2019-03-13T03:38:42.454Z,7
2019-03-13T03:39:54.677Z,7
2019-03-13T03:41:06.860Z,6.4
2019-03-13T03:42:19.071Z,7.7
2019-03-13T03:43:31.382Z,8.1
2019-03-13T03:44:43.460Z,5.8
2019-03-13T03:45:55.628Z,6.8
2019-03-13T03:47:10.905Z,6.1
2019-03-13T03:48:20.119Z,5
2019-03-13T03:49:32.414Z,11.2
2019-03-13T03:50:44.483Z,7.9
2019-03-13T03:51:56.603Z,7.9
2019-03-13T03:53:08.803Z,7.9
2019-03-13T03:54:21.088Z,10.7
2019-03-13T03:55:33.165Z,8.8
2019-03-13T03:56:45.520Z,9
2019-03-13T03:57:57.771Z,9.8
2019-03-13T03:59:13.619Z,7.8
2019-03-13T04:00:24.874Z,9.7
2019-03-13T04:01:35.763Z,8.5
2019-03-13T04:02:46.427Z,7.7
2019-03-13T04:03:58.604Z,8.8
2019-03-13T04:05:10.741Z,9.1
2019-03-13T04:06:22.992Z,11.8
2019-03-13T04:07:35.102Z,7.6
2019-03-13T04:08:47.437Z,6.3
2019-03-13T04:09:59.490Z,7.1
2019-03-13T04:11:16.103Z,11.2
2019-03-13T04:12:24.005Z,8
2019-03-13T04:13:36.151Z,8
2019-03-13T04:14:48.364Z,9.1
2019-03-13T04:16:00.478Z,5.9
2019-03-13T04:17:12.670Z,5.5
2019-03-13T04:18:24.890Z,8.2
2019-03-13T04:19:37.080Z,8.3
2019-03-13T04:20:49.266Z,8.2
2019-03-13T04:22:01.542Z,7.3
2019-03-13T04:23:13.620Z,6.9
2019-03-13T04:24:25.935Z,9.1
2019-03-13T04:25:38.249Z,8.5
2019-03-13T04:26:50.354Z,6.2
2019-03-13T04:28:02.472Z,8.1
2019-03-13T04:29:14.610Z,8.2
2019-03-13T04:30:26.836Z,9.7
2019-03-13T04:31:38.980Z,9.2
2019-03-13T04:32:51.185Z,11.3
2019-03-13T04:34:03.541Z,10.8
2019-03-13T04:35:15.568Z,10.4
2019-03-13T04:36:27.901Z,6.4
2019-03-13T04:37:39.956Z,5.7
2019-03-13T04:38:52.155Z,8.2
2019-03-13T04:40:04.645Z,11.7
2019-03-13T04:41:16.643Z,9.7
2019-03-13T04:42:31.776Z,7.4
2019-03-13T04:43:41.006Z,9.7
2019-03-13T04:44:53.117Z,9.5
2019-03-13T04:46:05.387Z,6.7
2019-03-13T04:47:17.554Z,7
2019-03-13T04:48:29.781Z,8.6
2019-03-13T04:49:41.959Z,8
2019-03-13T04:50:54.181Z,8.9
2019-03-13T04:52:06.289Z,7
2019-03-13T04:53:18.568Z,8.5
2019-03-13T04:54:30.670Z,8.6
2019-03-13T04:55:42.853Z,6.2
2019-03-13T04:56:55.106Z,7.7
2019-03-13T04:58:07.243Z,7.2
2019-03-13T04:59:19.438Z,4.8
2019-03-13T05:00:31.645Z,9.3
2019-03-13T05:01:43.846Z,6.8
2019-03-13T05:02:56.024Z,7.6
2019-03-13T05:04:08.216Z,7.9
2019-03-13T05:05:20.410Z,7.2
2019-03-13T05:06:32.718Z,7.8
2019-03-13T05:07:45.432Z,8.5
2019-03-13T05:08:57.070Z,9.3
2019-03-13T05:10:09.183Z,8.5
2019-03-13T05:11:21.400Z,8.7
2019-03-13T05:12:33.687Z,6.9
2019-03-13T05:13:45.762Z,6.5
2019-03-13T05:14:58.039Z,9.5
2019-03-13T05:16:10.154Z,5.7
2019-03-13T05:17:22.353Z,7.2
2019-03-13T05:18:34.537Z,14.2
2019-03-13T05:19:46.737Z,9.7
2019-03-13T05:20:58.976Z,9.5
2019-03-13T05:22:11.122Z,6.8
2019-03-13T05:23:23.943Z,9.2
2019-03-13T05:24:35.668Z,10.6
2019-03-13T05:25:47.769Z,7.5
2019-03-13T05:26:59.939Z,8.6
2019-03-13T05:28:12.119Z,9.7
2019-03-13T05:29:24.284Z,5.6
2019-03-13T05:30:36.474Z,8.8
2019-03-13T05:31:48.756Z,7.5
2019-03-13T05:33:00.956Z,7.6
2019-03-13T05:34:13.120Z,11.3
2019-03-13T05:35:25.469Z,10.2
2019-03-13T05:36:37.540Z,10.8
2019-03-13T05:37:49.714Z,7.1
2019-03-13T05:39:01.854Z,7.1
2019-03-13T05:40:14.202Z,8.5
2019-03-13T05:41:26.243Z,9.3
2019-03-13T05:42:38.516Z,10.3
2019-03-13T05:43:50.667Z,9
2019-03-13T05:45:02.825Z,9.6
2019-03-13T05:46:15.088Z,9.1
2019-03-13T05:47:27.192Z,9.8
2019-03-13T05:48:39.583Z,10
2019-03-13T05:49:51.577Z,8
2019-03-13T05:51:03.770Z,9.5
2019-03-13T05:52:15.989Z,7.9
2019-03-13T05:53:28.259Z,5.7
2019-03-13T05:54:40.440Z,7.2
2019-03-13T05:55:52.654Z,12.2
2019-03-13T05:57:04.748Z,7.1
2019-03-13T05:58:16.942Z,10
2019-03-13T05:59:29.224Z,10.9
2019-03-13T06:00:41.539Z,9.2
2019-03-13T06:01:53.639Z,9.1
2019-03-13T06:03:05.806Z,9.7
2019-03-13T06:04:17.969Z,7.6
2019-03-13T06:05:30.110Z,12.7
2019-03-13T06:06:42.333Z,8.6
2019-03-13T06:07:54.561Z,9
2019-03-13T06:09:06.725Z,11.3
2019-03-13T06:10:18.918Z,10.4
2019-03-13T06:11:31.068Z,9.7
2019-03-13T06:12:43.368Z,11.5
2019-03-13T06:13:55.542Z,10
2019-03-13T06:15:07.732Z,8.8
2019-03-13T06:16:19.921Z,11
2019-03-13T06:17:32.050Z,10.2
2019-03-13T06:18:44.245Z,10
2019-03-13T06:19:56.421Z,12.4
2019-03-13T06:21:08.616Z,7.9
2019-03-13T06:22:20.836Z,10.2
2019-03-13T06:23:33.081Z,8.5
2019-03-13T06:24:45.369Z,8.6
2019-03-13T06:25:57.417Z,13.3
2019-03-13T06:27:09.705Z,8.9
2019-03-13T06:28:21.784Z,15.2
2019-03-13T06:29:34.037Z,10.6
2019-03-13T06:30:46.342Z,11.2
2019-03-13T06:31:58.365Z,10.8
2019-03-13T06:33:11.452Z,8.6
2019-03-13T06:34:22.748Z,12.8
2019-03-13T06:35:35.038Z,11
2019-03-13T06:36:47.465Z,10.6
2019-03-13T06:37:59.326Z,9.2
2019-03-13T06:39:11.529Z,8.5
2019-03-13T06:40:23.791Z,7.3
2019-03-13T06:41:36.129Z,8.9
2019-03-13T06:42:48.178Z,7.4
2019-03-13T06:44:00.358Z,8.6
2019-03-13T06:45:12.596Z,7
2019-03-13T06:46:24.713Z,10.9
2019-03-13T06:47:36.933Z,10.3
2019-03-13T06:48:49.178Z,11.6
2019-03-13T06:50:01.529Z,9.3
2019-03-13T06:51:13.470Z,8.8
2019-03-13T06:52:25.656Z,8.5
2019-03-13T06:53:37.967Z,9.8
2019-03-13T06:54:50.065Z,10.1
2019-03-13T06:56:02.272Z,9.9
2019-03-13T06:57:14.446Z,9.4
2019-03-13T06:58:26.704Z,10.4
2019-03-13T06:59:38.817Z,9.8
2019-03-13T07:00:51.103Z,9.6
2019-03-13T07:02:03.229Z,10.9
2019-03-13T07:03:15.477Z,9.4
2019-03-13T07:04:27.620Z,9.1
2019-03-13T07:05:39.794Z,9.5
2019-03-13T07:06:52.104Z,10.5
2019-03-13T07:08:04.305Z,9.8
2019-03-13T07:09:16.639Z,7.7
2019-03-13T07:10:28.682Z,11.4
2019-03-13T07:11:40.915Z,8.8
2019-03-13T07:12:53.120Z,11.7
2019-03-13T07:14:05.238Z,9.2
2019-03-13T07:15:17.368Z,7
2019-03-13T07:16:29.602Z,9.9
2019-03-13T07:17:41.906Z,7.9
2019-03-13T07:18:53.923Z,9.3
2019-03-13T07:20:06.164Z,10
2019-03-13T07:21:18.318Z,11.5
2019-03-13T07:22:30.584Z,10.6
2019-03-13T07:23:42.804Z,9.8
2019-03-13T07:24:54.990Z,9.9
2019-03-13T07:26:07.104Z,10.9
2019-03-13T07:27:19.283Z,8.6
2019-03-13T07:28:31.516Z,9.6
2019-03-13T07:29:43.769Z,10.6
2019-03-13T07:30:55.934Z,8.3
2019-03-13T07:32:08.050Z,10.3
2019-03-13T07:33:20.327Z,11.3
2019-03-13T07:34:32.697Z,8.8
2019-03-13T07:35:44.663Z,8.7
2019-03-13T07:36:57.637Z,8.6
2019-03-13T07:38:09.621Z,7.4
2019-03-13T07:39:21.288Z,10.4
2019-03-13T07:40:33.603Z,8.5
2019-03-13T07:41:45.683Z,12.9
2019-03-13T07:42:57.808Z,6.9
2019-03-13T07:44:10.000Z,10.5
2019-03-13T07:45:22.175Z,6.2
2019-03-13T07:46:34.451Z,10.5
2019-03-13T07:47:46.652Z,8.7
2019-03-13T07:48:58.958Z,7.3
2019-03-13T07:50:11.071Z,9.2
2019-03-13T07:51:23.172Z,9.4
2019-03-13T07:52:35.424Z,7.2
2019-03-13T07:53:48.155Z,10.2
2019-03-13T07:54:59.839Z,10.7
2019-03-13T07:56:11.929Z,8.9
2019-03-13T07:57:24.122Z,8.8
2019-03-13T07:58:36.412Z,9.3
2019-03-13T07:59:48.544Z,8.5
2019-03-13T08:01:00.987Z,9.3
2019-03-13T08:02:12.996Z,11.1
2019-03-13T08:03:25.166Z,8.4
2019-03-13T08:04:37.359Z,11.3
2019-03-13T08:05:49.482Z,8.3
2019-03-13T08:07:04.203Z,7.1
2019-03-13T08:08:14.016Z,7
2019-03-13T08:09:26.060Z,6
2019-03-13T08:10:38.326Z,5.6
2019-03-13T08:11:50.443Z,7.3
2019-03-13T08:13:02.780Z,7.2
2019-03-13T08:14:14.915Z,4.4
2019-03-13T08:15:27.029Z,9.3
2019-03-13T08:16:39.341Z,7
2019-03-13T08:17:51.417Z,7.2
2019-03-13T08:19:03.613Z,5.5
2019-03-13T08:20:15.803Z,7.8
2019-03-13T08:21:28.030Z,3.7
2019-03-13T08:22:40.261Z,8.6
2019-03-13T08:23:52.397Z,6.1
2019-03-13T08:25:04.774Z,10.1
2019-03-13T08:26:17.777Z,6.2
2019-03-13T08:27:28.982Z,7.7
2019-03-13T08:28:41.194Z,7.7
2019-03-13T08:29:53.458Z,7.2
2019-03-13T08:31:05.552Z,4.4
2019-03-13T08:32:17.750Z,4.3
2019-03-13T08:33:29.960Z,6.2
2019-03-13T08:34:42.123Z,7.3
2019-03-13T08:35:54.320Z,7.4
2019-03-13T08:37:06.717Z,8
2019-03-13T08:38:18.892Z,8.6
2019-03-13T08:39:30.908Z,10.5
2019-03-13T08:40:43.184Z,7.2
2019-03-13T08:41:55.376Z,7.1
2019-03-13T08:43:07.591Z,8.9
2019-03-13T08:44:19.750Z,12.9
2019-03-13T08:45:31.952Z,6.1
2019-03-13T08:46:44.138Z,8.9
2019-03-13T08:47:56.261Z,8.5
2019-03-13T08:49:08.567Z,7
2019-03-13T08:50:20.749Z,7.4
2019-03-13T08:51:32.863Z,4.9
2019-03-13T08:52:45.042Z,6.6
2019-03-13T08:53:57.344Z,6.8
2019-03-13T08:55:09.534Z,9.1
2019-03-13T08:56:21.648Z,7.1
2019-03-13T08:57:33.981Z,5.6
2019-03-13T08:58:46.035Z,7.7
2019-03-13T08:59:58.236Z,5.7
2019-03-13T09:01:11.778Z,7.7
2019-03-13T09:02:22.709Z,7
2019-03-13T09:03:34.800Z,8.8
2019-03-13T09:04:47.002Z,5.9
2019-03-13T09:05:59.268Z,6
2019-03-13T09:07:11.399Z,7.3
2019-03-13T09:08:23.658Z,6.4
2019-03-13T09:09:35.791Z,5
2019-03-13T09:10:47.978Z,7.5
2019-03-13T09:12:00.263Z,6.5
2019-03-13T09:13:12.469Z,4.4
2019-03-13T09:14:24.560Z,8.1
2019-03-13T09:15:36.757Z,6.1
2019-03-13T09:16:49.073Z,7.2
2019-03-13T09:18:01.219Z,4.9
2019-03-13T09:19:13.388Z,5.7
2019-03-13T09:20:25.621Z,8.3
2019-03-13T09:21:37.830Z,6.5
2019-03-13T09:22:50.007Z,5.9
2019-03-13T09:24:02.132Z,7.9
2019-03-13T09:25:14.448Z,10.1
2019-03-13T09:26:26.527Z,7.6
2019-03-13T09:27:38.789Z,7.6
2019-03-13T09:28:50.914Z,5.1
2019-03-13T09:30:03.190Z,9.9
2019-03-13T09:31:15.387Z,6.9
2019-03-13T09:32:27.492Z,7.5
2019-03-13T09:33:39.774Z,7.3
2019-03-13T09:34:51.882Z,6.4
2019-03-13T09:36:04.110Z,5.4
2019-03-13T09:37:16.482Z,8.1
2019-03-13T09:38:28.484Z,6.3
2019-03-13T09:39:40.737Z,5.3
2019-03-13T09:40:52.911Z,5.7
2019-03-13T09:42:05.076Z,7.1
2019-03-13T09:43:17.278Z,7.2
2019-03-13T09:44:29.553Z,7.1
2019-03-13T09:45:41.663Z,7.8
2019-03-13T09:46:53.831Z,5.4
2019-03-13T09:48:06.027Z,9.3
2019-03-13T09:49:18.407Z,6.5
2019-03-13T09:50:30.442Z,8.4
2019-03-13T09:51:42.730Z,6.8
2019-03-13T09:52:54.834Z,9.6
2019-03-13T09:54:07.076Z,8.4
2019-03-13T09:55:19.239Z,9.3
2019-03-13T09:56:31.461Z,5.7
2019-03-13T09:57:43.790Z,6.4
2019-03-13T09:58:55.782Z,5.2
2019-03-13T10:00:08.931Z,10.3
2019-03-13T10:01:20.357Z,7.6
2019-03-13T10:02:32.545Z,6.9
2019-03-13T10:03:44.584Z,6.5
2019-03-13T10:04:56.796Z,6.4
2019-03-13T10:06:09.072Z,6.4
2019-03-13T10:07:21.175Z,7.8
2019-03-13T10:08:33.402Z,7.5
2019-03-13T10:09:45.539Z,7.2
2019-03-13T10:10:57.934Z,5.9
2019-03-13T10:12:10.002Z,5.8
2019-03-13T10:13:22.227Z,8.7
2019-03-13T10:14:34.329Z,8.8
2019-03-13T10:15:46.611Z,9.5
2019-03-13T10:16:58.907Z,7.5
2019-03-13T10:18:10.919Z,9.3
2019-03-13T10:19:23.095Z,9.1
2019-03-13T10:20:35.301Z,8.3
2019-03-13T10:21:47.552Z,6
2019-03-13T10:22:59.687Z,5
2019-03-13T10:24:15.226Z,6.8
2019-03-13T10:25:24.200Z,8.4
2019-03-13T10:26:36.380Z,7.4
2019-03-13T10:27:48.553Z,6.8
2019-03-13T10:29:00.685Z,8.2
2019-03-13T10:30:12.876Z,9.8
2019-03-13T10:31:25.139Z,7.5
2019-03-13T10:32:37.341Z,6.3
2019-03-13T10:33:49.449Z,7.7
2019-03-13T10:35:02.442Z,7.7
2019-03-13T10:36:13.953Z,10.7
2019-03-13T10:37:26.211Z,6.5
2019-03-13T10:38:38.271Z,5.2
2019-03-13T10:39:50.452Z,7.2
2019-03-13T10:41:02.670Z,9.3
2019-03-13T10:42:14.824Z,8.4
2019-03-13T10:43:27.006Z,9.3
2019-03-13T10:44:39.291Z,8.5
2019-03-13T10:45:51.488Z,8
2019-03-13T10:47:03.613Z,8.2
2019-03-13T10:48:15.789Z,7.3
2019-03-13T10:49:28.327Z,7.6
2019-03-13T10:50:40.182Z,8.2
2019-03-13T10:51:52.376Z,9.1
2019-03-13T10:53:04.704Z,13.6
2019-03-13T10:54:16.775Z,10.1
2019-03-13T10:55:29.045Z,7.8
2019-03-13T10:56:41.221Z,6.1
2019-03-13T10:57:53.353Z,8.7
2019-03-13T10:59:05.634Z,5.1
2019-03-13T11:00:17.792Z,6.6
2019-03-13T11:01:30.066Z,8.4
2019-03-13T11:02:42.139Z,6.9
2019-03-13T11:03:54.333Z,8.2
2019-03-13T11:05:06.600Z,5.5
2019-03-13T11:06:18.732Z,9.6
2019-03-13T11:07:31.137Z,4.5
2019-03-13T11:08:43.218Z,5.5
2019-03-13T11:09:55.318Z,4.6
2019-03-13T11:11:07.575Z,7.1
2019-03-13T11:12:19.702Z,5.5
2019-03-13T11:13:32.209Z,5.7
2019-03-13T11:14:44.113Z,5.6
2019-03-13T11:15:56.283Z,6.3
2019-03-13T11:17:08.587Z,6.8
2019-03-13T11:18:20.688Z,6.4
2019-03-13T11:19:33.104Z,3.7
2019-03-13T11:20:45.060Z,5.2
2019-03-13T11:21:57.655Z,4.4
2019-03-13T11:23:09.452Z,7.3
2019-03-13T11:24:21.721Z,3.2
2019-03-13T11:25:33.962Z,4.9
2019-03-13T11:26:46.145Z,3.7
2019-03-13T11:27:59.215Z,8
2019-03-13T11:29:10.434Z,3.9
2019-03-13T11:30:22.635Z,4.2
2019-03-13T11:31:34.827Z,4.8
2019-03-13T11:32:47.105Z,3.5
2019-03-13T11:33:59.221Z,3.8
2019-03-13T11:35:11.413Z,2.9
2019-03-13T11:36:23.607Z,2.8
2019-03-13T11:37:35.904Z,5.4
2019-03-13T11:38:47.990Z,2.2
2019-03-13T11:40:00.202Z,3.9
2019-03-13T11:41:12.489Z,3.3
2019-03-13T11:42:24.594Z,3.8
2019-03-13T11:43:37.049Z,3.5
2019-03-13T11:44:48.965Z,5.3
2019-03-13T11:46:01.213Z,1.9
2019-03-13T11:47:13.390Z,3.2
2019-03-13T11:48:25.562Z,3.5
2019-03-13T11:49:37.934Z,2.9
2019-03-13T11:50:49.965Z,5.1
2019-03-13T11:52:02.307Z,3.7
2019-03-13T11:53:14.358Z,3.6
2019-03-13T11:54:27.001Z,2.4
2019-03-13T11:55:38.856Z,2.8
2019-03-13T11:56:50.958Z,3.2
2019-03-13T11:58:03.137Z,4.6
2019-03-13T11:59:15.319Z,4.1
2019-03-13T12:00:27.574Z,5
2019-03-13T12:01:39.829Z,3.6
2019-03-13T12:02:51.993Z,3.6
2019-03-13T12:04:04.107Z,4.7
2019-03-13T12:05:17.224Z,4.2
2019-03-13T12:06:28.533Z,4.6
2019-03-13T12:07:40.783Z,4.8
2019-03-13T12:08:52.955Z,4
2019-03-13T12:10:05.181Z,4.2
2019-03-13T12:11:17.366Z,4.6
2019-03-13T12:12:29.499Z,4.1
2019-03-13T12:13:41.816Z,3.1
2019-03-13T12:14:53.930Z,2.8
2019-03-13T12:16:06.068Z,3.4
2019-03-13T12:17:18.329Z,4.1
2019-03-13T12:18:30.517Z,4.4
2019-03-13T12:19:42.644Z,2.9
2019-03-13T12:20:54.919Z,3.2
2019-03-13T12:22:07.075Z,4.1
2019-03-13T12:23:19.477Z,4.6
2019-03-13T12:24:31.650Z,6.5
2019-03-13T12:25:43.727Z,2.9
2019-03-13T12:26:55.905Z,2.9
2019-03-13T12:28:08.001Z,3.2
2019-03-13T12:29:20.282Z,3.3
2019-03-13T12:30:32.504Z,2.6
2019-03-13T12:31:44.594Z,2.4
2019-03-13T12:32:57.789Z,3.4
2019-03-13T12:34:09.167Z,2
2019-03-13T12:35:21.273Z,4.3
2019-03-13T12:36:33.475Z,5.6
2019-03-13T12:37:45.675Z,2.1
2019-03-13T12:38:57.764Z,2.9
2019-03-13T12:40:10.061Z,3.8
2019-03-13T12:41:22.267Z,3
2019-03-13T12:42:34.364Z,2.2
2019-03-13T12:43:46.729Z,3
2019-03-13T12:44:58.748Z,3.5
2019-03-13T12:46:11.002Z,2.2
2019-03-13T12:47:23.166Z,3.5
2019-03-13T12:48:35.357Z,4.1
2019-03-13T12:49:47.696Z,2.9
2019-03-13T12:50:59.710Z,5.4
2019-03-13T12:52:11.908Z,3.7
2019-03-13T12:53:24.175Z,3.8
2019-03-13T12:54:36.321Z,3.6
2019-03-13T12:55:48.494Z,4.2
2019-03-13T12:57:00.831Z,2.8
2019-03-13T12:58:12.925Z,3.2
2019-03-13T12:59:25.176Z,2.9
2019-03-13T13:00:37.339Z,3
2019-03-13T13:01:49.569Z,5.8
2019-03-13T13:03:01.758Z,3.3
2019-03-13T13:04:13.866Z,2.7
2019-03-13T13:05:26.703Z,2.1
2019-03-13T13:06:38.406Z,2.1
2019-03-13T13:07:50.541Z,2.5
2019-03-13T13:09:02.752Z,2.9
2019-03-13T13:10:14.929Z,1.8
2019-03-13T13:11:27.041Z,2.7
2019-03-13T13:12:39.495Z,2.6
2019-03-13T13:13:51.542Z,4.1
2019-03-13T13:15:03.716Z,1.8
2019-03-13T13:16:15.813Z,2.9
2019-03-13T13:17:28.048Z,2.5
2019-03-13T13:18:40.211Z,2.6
2019-03-13T13:31:07.091Z,4.3
2019-03-13T13:31:13.209Z,1.6
2019-03-13T13:41:33.078Z,4.6
2019-03-13T13:42:44.270Z,3
2019-03-13T13:43:56.403Z,2.6
2019-03-13T13:45:08.598Z,2.4
2019-03-13T13:46:20.774Z,3
2019-03-13T13:47:32.910Z,3.3
2019-03-13T13:48:45.122Z,2.2
2019-03-13T13:49:57.498Z,3.6
2019-03-13T13:51:09.512Z,2.9
2019-03-13T13:52:21.700Z,2.2
2019-03-13T13:53:33.881Z,1.7
2019-03-13T13:54:46.160Z,2.7
2019-03-13T13:55:58.342Z,2.6
2019-03-13T13:57:10.491Z,3.2
2019-03-13T13:58:22.778Z,2.7
2019-03-13T13:59:34.936Z,1.8
2019-03-13T14:00:47.117Z,4.6
2019-03-13T14:01:59.354Z,3.5
2019-03-13T14:03:11.531Z,2.2
2019-03-13T14:04:23.698Z,3.4
2019-03-13T14:05:35.834Z,3.5
2019-03-13T14:06:48.051Z,4.6
2019-03-13T14:08:00.339Z,3.4
2019-03-13T14:09:12.538Z,3.1
2019-03-13T14:10:24.702Z,3.3
2019-03-13T14:11:36.910Z,1.9
2019-03-13T14:12:48.999Z,2
2019-03-13T14:14:01.431Z,5.1
2019-03-13T14:15:13.487Z,4.5
2019-03-13T14:16:25.598Z,5.9
2019-03-13T14:17:37.794Z,4.2
2019-03-13T14:18:50.086Z,3.3
2019-03-13T14:20:02.305Z,5.2
2019-03-13T14:21:14.389Z,3.1
2019-03-13T14:22:26.657Z,4.5
2019-03-13T14:23:38.853Z,3.7
2019-03-13T14:24:51.066Z,5.4
2019-03-13T14:26:03.296Z,5.7
2019-03-13T14:27:15.519Z,5.7
2019-03-13T14:28:27.551Z,6.5
2019-03-13T14:29:39.753Z,6.3
2019-03-13T14:30:52.053Z,6
2019-03-13T14:32:04.255Z,5.3
2019-03-13T14:33:16.380Z,6.4
2019-03-13T14:34:28.521Z,7.2
2019-03-13T14:35:40.748Z,6.5
2019-03-13T14:36:53.017Z,6.7
2019-03-13T14:38:05.202Z,7.5
2019-03-13T14:39:17.339Z,6.6
2019-03-13T14:40:29.580Z,4.5
2019-03-13T14:41:41.709Z,5.6
2019-03-13T14:42:53.915Z,8.5
2019-03-13T14:44:06.096Z,8.3
2019-03-13T14:45:18.337Z,10.2
2019-03-13T14:46:30.570Z,9.8
2019-03-13T14:47:42.747Z,7.9
2019-03-13T14:48:54.998Z,6.6
2019-03-13T14:50:08.135Z,7.1
2019-03-13T14:51:19.366Z,9.5
2019-03-13T14:52:31.453Z,7.8
2019-03-13T14:53:43.681Z,6.1
2019-03-13T14:54:56.025Z,8.4
2019-03-13T14:56:08.309Z,6.9
2019-03-13T14:57:20.257Z,9.8
2019-03-13T14:58:32.458Z,8.2
2019-03-13T14:59:44.665Z,9.2
2019-03-13T15:00:56.963Z,7.4
2019-03-13T15:02:09.104Z,8.5
2019-03-13T15:03:21.311Z,9.4
2019-03-13T15:04:33.448Z,7
2019-03-13T15:05:45.620Z,5.6
2019-03-13T15:06:57.797Z,8.4
2019-03-13T15:08:10.009Z,7
2019-03-13T15:09:22.283Z,9.8
2019-03-13T15:10:34.968Z,9
2019-03-13T15:11:46.673Z,7.1
2019-03-13T15:12:58.881Z,10
2019-03-13T15:14:11.080Z,6.7
2019-03-13T15:15:23.177Z,9.7
2019-03-13T15:16:35.375Z,9.1
2019-03-13T15:17:47.591Z,8
2019-03-13T15:18:59.842Z,11.7
2019-03-13T15:20:12.178Z,13
2019-03-13T15:21:24.191Z,13.5
2019-03-13T15:22:36.425Z,15.4
2019-03-13T15:23:48.538Z,13.7
2019-03-13T15:25:00.752Z,14.8
2019-03-13T15:26:13.003Z,14.5
2019-03-13T15:27:25.136Z,13.3
2019-03-13T15:28:37.375Z,9.6
2019-03-13T15:29:49.515Z,11.6
2019-03-13T15:31:01.841Z,15.5
2019-03-13T15:32:13.924Z,11.3
2019-03-13T15:33:26.187Z,12.2
2019-03-13T15:34:38.389Z,14.5
2019-03-13T15:35:55.377Z,12.7
2019-03-13T15:37:04.669Z,13.6
2019-03-13T15:38:15.045Z,12.8
2019-03-13T15:39:27.105Z,11.2
2019-03-13T15:40:39.352Z,16.1
2019-03-13T15:41:51.645Z,15.4
2019-03-13T15:43:03.899Z,16.5
2019-03-13T15:44:15.865Z,15.8
2019-03-13T15:45:28.139Z,10.4
2019-03-13T15:46:40.266Z,12.9
2019-03-13T15:47:52.442Z,9.7
2019-03-13T15:49:04.638Z,11.3
2019-03-13T15:50:16.953Z,11.5
2019-03-13T15:51:29.041Z,9.2
2019-03-13T15:52:41.487Z,11.5
2019-03-13T15:53:53.438Z,10.6
2019-03-13T15:55:05.619Z,11.3
2019-03-13T15:56:17.884Z,13
2019-03-13T15:57:30.006Z,13.7
2019-03-13T15:58:42.271Z,13.2
2019-03-13T15:59:54.390Z,12.3
2019-03-13T16:01:06.871Z,15.5
2019-03-13T16:02:19.221Z,11.3
2019-03-13T16:03:30.997Z,15.2
2019-03-13T16:04:43.186Z,16.9
2019-03-13T16:05:59.063Z,10.2
2019-03-13T16:07:07.626Z,9.6
2019-03-13T16:08:19.799Z,13.5
2019-03-13T16:09:31.977Z,13.1
2019-03-13T16:10:44.174Z,13.9
2019-03-13T16:11:56.355Z,12.8
2019-03-13T16:13:08.609Z,10.7
2019-03-13T16:14:20.926Z,10.7
2019-03-13T16:15:33.004Z,8.9
2019-03-13T16:16:45.202Z,7.8
2019-03-13T16:17:57.328Z,10.4
2019-03-13T16:19:09.554Z,11
2019-03-13T16:20:21.833Z,10.7
2019-03-13T16:21:34.003Z,7.4
2019-03-13T16:22:46.240Z,6.2
2019-03-13T16:23:58.330Z,8.5
2019-03-13T16:25:10.503Z,8.1
2019-03-13T16:26:22.889Z,5.7
2019-03-13T16:27:34.972Z,10.1
2019-03-13T16:28:47.170Z,6.4
2019-03-13T16:29:59.286Z,6.9
2019-03-13T16:31:11.576Z,4.3
2019-03-13T16:32:23.797Z,2.2
2019-03-13T16:33:35.865Z,2.5
2019-03-13T16:34:48.169Z,4.7
2019-03-13T16:36:00.345Z,1.7
2019-03-13T16:37:12.466Z,2.5
2019-03-13T16:38:24.743Z,1.9
2019-03-13T16:39:36.996Z,3.2
2019-03-13T16:40:49.171Z,1.9
2019-03-13T16:42:01.472Z,2.3
2019-03-13T16:43:13.456Z,1.7
2019-03-13T16:44:25.957Z,1.5
2019-03-13T16:45:37.832Z,1.6
2019-03-13T16:46:50.060Z,1.3
2019-03-13T16:48:02.255Z,2
2019-03-13T16:49:14.425Z,3.1
2019-03-13T16:50:26.706Z,2.2
2019-03-13T16:51:38.808Z,1.8
2019-03-13T16:52:51.103Z,3.8
2019-03-13T16:54:03.230Z,1.3